Weather History for Silver City, NM

Change the Weather History Date:

Thursday, January 26, 2012

  Actual Average (KDMN) Record (KDMN)
Temperature  
Mean Temperature 46 °F 44 °F  
Max Temperature 59 °F 59 °F 74 °F (1951)
Min Temperature 33 °F 29 °F 11 °F (1966)
Degree Days  
Heating Degree Days 19    
Moisture  
Dew Point 20 °F    
Average Humidity 40    
Maximum Humidity 60    
Minimum Humidity 20    
Precipitation  
Precipitation 0.00 in 0.02 in 0.50 in (1985)
Month to date precipitation 0.50  
Year to date precipitation 0.50  
Sea Level Pressure  
Sea Level Pressure 30.19 in    
Wind  
Wind Speed 10 mph (WSW)    
Max Wind Speed 16 mph    
Max Gust Speed 20 mph    
Visibility 10 miles    
Events      
T = Trace of Precipitation, MM = Missing Value Source: NWS Daily Summary

Daily Weather History Graph

Daily Weather History Graph

Search for Another Location

Airport:

Trip Planner

Search our weather history database for the weather conditions in past years. The results will help you decide how hot, cold, wet, or windy it might be!

Date:

Astronomy

Jan. 26, 2012 Rise Set
Actual Time 7:11 AM MST 5:39 PM MST
Civil Twilight 6:44 AM MST 6:05 PM MST
Nautical Twilight 6:15 AM MST 6:35 PM MST
Astronomical Twilight 5:45 AM MST 7:04 PM MST
Moon 8:54 AM MST (1/26) 9:18 PM MST (1/26)
Length of Visible Light 11h 20m
Length of Day
10h 28m
Waxing Crescent, 13% of the Moon is Illuminated
Jan 26
Waxing Crescent
Jan 30
First Quarter
Feb 7
Full
Feb 14
Last Quarter
Feb 21
New

Hourly Weather History & Observations

Time (MST) Temp. Windchill Dew Point Humidity Pressure Visibility Wind Dir Wind Speed Gust Speed Precip Events Conditions
12:15 AM 35.6 °F 26.6 °F 21.2 °F 56% 30.19 in 10.0 mi NW 13.8 mph - N/A   Clear
12:35 AM 35.6 °F 26.2 °F 21.2 °F 56% 30.18 in 10.0 mi NW 15.0 mph - N/A   Clear
12:55 AM 35.6 °F 26.6 °F 21.2 °F 56% 30.18 in 10.0 mi NW 13.8 mph - N/A   Clear
1:15 AM 35.6 °F 27.1 °F 21.2 °F 56% 30.18 in 10.0 mi NW 12.7 mph - N/A   Clear
1:35 AM 35.6 °F 28.0 °F 21.2 °F 56% 30.18 in 10.0 mi NW 10.4 mph - N/A   Clear
1:55 AM 35.6 °F 25.9 °F 21.2 °F 56% 30.18 in 10.0 mi NW 16.1 mph - N/A   Clear
2:15 AM 37.4 °F 28.5 °F 21.2 °F 52% 30.18 in 10.0 mi NW 15.0 mph - N/A   Clear
2:35 AM 37.4 °F 29.8 °F 21.2 °F 52% 30.18 in 10.0 mi NW 11.5 mph - N/A   Clear
2:55 AM 35.6 °F 30.7 °F 21.2 °F 56% 30.19 in 10.0 mi NW 5.8 mph - N/A   Clear
3:15 AM 35.6 °F 31.7 °F 21.2 °F 56% 30.19 in 10.0 mi North 4.6 mph - N/A   Clear
3:35 AM 37.4 °F 30.8 °F 21.2 °F 52% 30.18 in 10.0 mi NW 9.2 mph - N/A   Clear
3:55 AM 35.6 °F 28.0 °F 21.2 °F 56% 30.17 in 10.0 mi NW 10.4 mph - N/A   Clear
4:15 AM 35.6 °F 30.7 °F 21.2 °F 56% 30.17 in 10.0 mi NW 5.8 mph - N/A   Clear
4:35 AM 35.6 °F 28.0 °F 21.2 °F 56% 30.17 in 10.0 mi NW 10.4 mph - N/A   Clear
4:55 AM 37.4 °F 30.8 °F 21.2 °F 52% 30.17 in 10.0 mi NNW 9.2 mph - N/A   Clear
5:15 AM 37.4 °F 30.8 °F 21.2 °F 52% 30.18 in 10.0 mi NNW 9.2 mph - N/A   Clear
5:35 AM 37.4 °F 29.3 °F 21.2 °F 52% 30.19 in 10.0 mi NNW 12.7 mph - N/A   Clear
5:55 AM 35.6 °F 27.5 °F 21.2 °F 56% 30.19 in 10.0 mi NNW 11.5 mph - N/A   Clear
6:15 AM 35.6 °F 27.5 °F 19.4 °F 52% 30.20 in 10.0 mi NNW 11.5 mph - N/A   Clear
6:35 AM 33.8 °F 25.8 °F 21.2 °F 60% 30.20 in 10.0 mi NNW 10.4 mph - N/A   Clear
6:55 AM 33.8 °F 27.0 °F 19.4 °F 56% 30.21 in 10.0 mi North 8.1 mph - N/A   Clear
7:15 AM 35.6 °F 29.2 °F 19.4 °F 52% 30.22 in 10.0 mi North 8.1 mph - N/A   Clear
7:35 AM 35.6 °F 29.2 °F 21.2 °F 56% 30.22 in 10.0 mi North 8.1 mph - N/A   Clear
7:55 AM 35.6 °F 32.8 °F 23.0 °F 60% 30.23 in 10.0 mi NNW 3.5 mph - N/A   Clear
8:15 AM 37.4 °F - 23.0 °F 56% 30.24 in 10.0 mi Calm Calm - N/A   Clear
8:35 AM 41.0 °F - 19.4 °F 42% 30.24 in 10.0 mi Calm Calm - N/A   Clear
8:55 AM 44.6 °F - 19.4 °F 37% 30.25 in 10.0 mi Calm Calm - N/A   Clear
9:15 AM 48.2 °F - 19.4 °F 32% 30.25 in 10.0 mi Calm Calm - N/A   Clear
9:35 AM 50.0 °F - 21.2 °F 32% 30.25 in 10.0 mi South 4.6 mph - N/A   Clear
9:55 AM 50.0 °F - 19.4 °F 30% 30.25 in 10.0 mi SSW 4.6 mph - N/A   Clear
10:15 AM 51.8 °F - 17.6 °F 26% 30.25 in 10.0 mi South 6.9 mph - N/A   Clear
10:35 AM 53.6 °F - 19.4 °F 26% 30.25 in 10.0 mi SSE 6.9 mph - N/A   Clear
10:55 AM 55.4 °F - 21.2 °F 26% 30.25 in 10.0 mi SSE 8.1 mph - N/A   Clear
11:15 AM 55.4 °F - 19.4 °F 25% 30.24 in 10.0 mi SSE 9.2 mph - N/A   Clear
11:35 AM 55.4 °F - 19.4 °F 25% 30.23 in 10.0 mi SSE 8.1 mph - N/A   Clear
11:55 AM 57.2 °F - 19.4 °F 23% 30.22 in 10.0 mi SSE 8.1 mph - N/A   Clear
12:15 PM 57.2 °F - 19.4 °F 23% 30.21 in 10.0 mi SSE 10.4 mph - N/A   Clear
12:35 PM 57.2 °F - 19.4 °F 23% 30.20 in 10.0 mi South 9.2 mph - N/A   Clear
12:55 PM 59.0 °F - 17.6 °F 20% 30.20 in 10.0 mi South 10.4 mph - N/A   Clear
1:35 PM 59.0 °F - 19.4 °F 22% 30.19 in 10.0 mi South 12.7 mph 16.1 mph N/A   Clear
1:55 PM 59.0 °F - 19.4 °F 22% 30.19 in 10.0 mi South 11.5 mph - N/A   Clear
2:15 PM 59.0 °F - 19.4 °F 22% 30.18 in 10.0 mi SSE 13.8 mph 17.3 mph N/A   Clear
2:35 PM 59.0 °F - 17.6 °F 20% 30.18 in 10.0 mi South 13.8 mph - N/A   Clear
2:55 PM 59.0 °F - 19.4 °F 22% 30.17 in 10.0 mi South 11.5 mph - N/A   Clear
3:15 PM 59.0 °F - 19.4 °F 22% 30.16 in 10.0 mi South 12.7 mph 18.4 mph N/A   Clear
3:35 PM 59.0 °F - 19.4 °F 22% 30.15 in 10.0 mi South 12.7 mph 19.6 mph N/A   Clear
3:55 PM 59.0 °F - 19.4 °F 22% 30.14 in 10.0 mi South 15.0 mph 18.4 mph N/A   Clear
4:15 PM 59.0 °F - 19.4 °F 22% 30.13 in 10.0 mi South 12.7 mph 17.3 mph N/A   Clear
4:35 PM 59.0 °F - 19.4 °F 22% 30.13 in 10.0 mi South 11.5 mph - N/A   Clear
4:55 PM 57.2 °F - 19.4 °F 23% 30.13 in 10.0 mi South 12.7 mph - N/A   Clear
5:15 PM 57.2 °F - 19.4 °F 23% 30.13 in 10.0 mi South 8.1 mph - N/A   Clear
5:35 PM 55.4 °F - 19.4 °F 25% 30.14 in 10.0 mi South 8.1 mph - N/A   Clear
5:55 PM 53.6 °F - 19.4 °F 26% 30.13 in 10.0 mi SW 6.9 mph - N/A   Clear
6:15 PM 50.0 °F - 19.4 °F 30% 30.14 in 10.0 mi West 4.6 mph - N/A   Clear
6:35 PM 46.4 °F 42.9 °F 21.2 °F 37% 30.14 in 10.0 mi West 6.9 mph - N/A   Clear
6:55 PM 44.6 °F 41.4 °F 23.0 °F 43% 30.14 in 10.0 mi WNW 5.8 mph - N/A   Clear
7:35 PM 35.6 °F 31.7 °F 23.0 °F 60% 30.13 in 10.0 mi WNW 4.6 mph - N/A   Clear
7:55 PM 37.4 °F 33.8 °F 24.8 °F 60% 30.13 in 10.0 mi NW 4.6 mph - N/A   Clear
8:15 PM 37.4 °F 31.4 °F 24.8 °F 60% 30.13 in 10.0 mi NNE 8.1 mph - N/A   Clear
8:35 PM 37.4 °F 32.8 °F 24.8 °F 60% 30.12 in 10.0 mi NNE 5.8 mph - N/A   Clear
8:55 PM 35.6 °F 32.8 °F 24.8 °F 65% 30.12 in 10.0 mi ENE 3.5 mph - N/A   Clear
9:15 PM 35.6 °F 30.7 °F 24.8 °F 65% 30.11 in 10.0 mi NNE 5.8 mph - N/A   Clear
9:35 PM 35.6 °F 28.6 °F 24.8 °F 65% 30.11 in 10.0 mi NNE 9.2 mph - N/A   Clear
9:55 PM 35.6 °F 29.9 °F 24.8 °F 65% 30.11 in 10.0 mi NNE 6.9 mph - N/A   Clear
10:15 PM 33.8 °F 27.7 °F 24.8 °F 70% 30.10 in 10.0 mi North 6.9 mph - N/A   Clear
10:35 PM 32.0 °F 24.2 °F 24.8 °F 75% 30.11 in 10.0 mi North 9.2 mph - N/A   Clear
10:55 PM 32.0 °F 24.8 °F 24.8 °F 75% 30.10 in 10.0 mi North 8.1 mph - N/A   Clear
11:35 PM 32.0 °F 23.6 °F 23.0 °F 69% 30.10 in 10.0 mi NNW 10.4 mph - N/A   Clear
11:55 PM 33.8 °F 28.6 °F 23.0 °F 65% 30.09 in 10.0 mi NNW 5.8 mph - N/A   Clear